ZSNB

Ningbo Lishe International Airport

Ningbo, China
TAF ZSNB 201345Z 2018/2118 17005G10MPS 6000 SCT040 TX28/2106Z TN17/2021Z
Issued Valid From Valid To
Apr-20 @ 13:45 UTC
(5 hours ago)
Apr-20 @ 18:00 UTC
(39 minutes ago)
Apr-21 @ 18:00 UTC
(in 23 hours)
Apr-20 @ 18:00 to Apr-21 @ 18:00
TAF ZSNB 201345Z 2018/2118 17005G10MPS 6000 SCT040 TX28/2106Z TN17/2021Z
Wind Visibility Clouds
170° at 10 knots
 Gusting to 19 knots
6,003 meters
  • Scattered at 4,000' AGL
TAF ZSNB 201345Z 2018/2118 17005G10MPS 6000 SCT040 TX28/2106Z TN17/2021Z
Issued Apr-20 @ 13:45 UTC
(5 hours ago)
Valid From Apr-20 @ 18:00 UTC
(39 minutes ago)
Valid To Apr-21 @ 18:00 UTC
(in 23 hours)
Apr-20 @ 18:00 - Apr-21 @ 18:00
Wind Visibility
170° at 10 knots
 Gusting to 19 knots
6,003 meters
Clouds
  • Scattered at 4,000' AGL